createdAt,value
2019-02-03T00:00:21.964Z,86.81
2019-02-03T00:01:21.926Z,86.67
2019-02-03T00:02:21.863Z,87.06
2019-02-03T00:03:21.840Z,87.06
2019-02-03T00:04:21.788Z,87.16
2019-02-03T00:05:21.756Z,87.25
2019-02-03T00:06:21.722Z,87.16
2019-02-03T00:07:21.659Z,87.06
2019-02-03T00:08:21.636Z,86.96
2019-02-03T00:09:21.582Z,87.54
2019-02-03T00:10:21.553Z,87.35
2019-02-03T00:11:21.506Z,86.67
2019-02-03T00:12:21.431Z,87.35
2019-02-03T00:13:21.409Z,87.20
2019-02-03T00:14:21.357Z,87.29
2019-02-03T00:15:21.333Z,86.91
2019-02-03T00:16:21.289Z,86.91
2019-02-03T00:17:21.227Z,86.91
2019-02-03T00:18:21.171Z,86.81
2019-02-03T00:19:21.140Z,86.91
2019-02-03T00:20:21.100Z,86.91
2019-02-03T00:21:21.042Z,87.20
2019-02-03T00:22:20.999Z,86.52
2019-02-03T00:23:20.956Z,86.52
2019-02-03T00:24:20.924Z,86.52
2019-02-03T00:25:20.881Z,86.61
2019-02-03T00:26:20.851Z,86.61
2019-02-03T00:27:20.805Z,86.61
2019-02-03T00:28:20.761Z,86.32
2019-02-03T00:29:20.698Z,86.32
2019-02-03T00:30:20.688Z,86.71
2019-02-03T00:31:20.644Z,86.91
2019-02-03T00:32:20.591Z,86.91
2019-02-03T00:33:20.557Z,86.81
2019-02-03T00:34:20.482Z,87.29
2019-02-03T00:35:20.459Z,87.49
2019-02-03T00:36:20.439Z,87.49
2019-02-03T00:37:20.353Z,87.93
2019-02-03T00:38:24.155Z,87.84
2019-02-03T00:39:20.294Z,88.42
2019-02-03T00:40:20.263Z,89.10
2019-02-03T00:41:20.257Z,89.00
2019-02-03T00:42:20.137Z,88.81
2019-02-03T00:43:20.114Z,89.10
2019-02-03T00:44:20.082Z,89.00
2019-02-03T00:45:20.019Z,89.10
2019-02-03T00:46:19.997Z,88.90
2019-02-03T00:47:19.932Z,89.29
2019-02-03T00:48:19.890Z,89.39
2019-02-03T00:49:19.835Z,89.39
2019-02-03T00:50:19.803Z,89.69
2019-02-03T00:51:19.768Z,89.93
2019-02-03T00:52:19.717Z,90.22
2019-02-03T00:53:19.682Z,90.61
2019-02-03T00:54:19.630Z,90.61
2019-02-03T00:55:19.595Z,90.32
2019-02-03T00:56:19.552Z,90.61
2019-02-03T00:57:19.500Z,91.10
2019-02-03T00:58:19.465Z,91.10
2019-02-03T00:59:19.422Z,91.29
2019-02-03T01:00:19.370Z,91.29
2019-02-03T01:01:19.348Z,91.68
2019-02-03T01:02:19.272Z,91.68
2019-02-03T01:03:19.229Z,91.29
2019-02-03T01:04:19.205Z,91.39
2019-02-03T01:05:19.164Z,91.29
2019-02-03T01:06:19.119Z,91.29
2019-02-03T01:07:27.081Z,91.29
2019-02-03T01:08:19.033Z,91.68
2019-02-03T01:09:18.988Z,91.15
2019-02-03T01:10:18.933Z,91.83
2019-02-03T01:11:18.914Z,91.64
2019-02-03T01:12:18.857Z,92.41
2019-02-03T01:13:18.794Z,91.54
2019-02-03T01:14:18.750Z,91.74
2019-02-03T01:15:18.766Z,92.22
2019-02-03T01:16:18.758Z,91.93
2019-02-03T01:17:18.633Z,91.93
2019-02-03T01:18:18.597Z,91.64
2019-02-03T01:19:18.558Z,91.69
2019-02-03T01:20:18.522Z,91.78
2019-02-03T01:21:18.468Z,91.78
2019-02-03T01:22:18.418Z,91.69
2019-02-03T01:23:18.391Z,91.59
2019-02-03T01:24:18.315Z,91.88
2019-02-03T01:25:18.286Z,91.40
2019-02-03T01:26:18.230Z,91.59
2019-02-03T01:27:18.185Z,92.18
2019-02-03T01:28:18.141Z,92.57
2019-02-03T01:29:18.100Z,93.05
2019-02-03T01:30:18.087Z,92.81
2019-02-03T01:31:18.021Z,93.92
2019-02-03T01:32:17.968Z,93.82
2019-02-03T01:33:17.934Z,94.41
2019-02-03T01:34:17.878Z,94.60
2019-02-03T01:35:17.857Z,94.95
2019-02-03T01:36:17.812Z,95.62
2019-02-03T01:37:17.748Z,95.82
2019-02-03T01:38:17.736Z,96.11
2019-02-03T01:39:17.672Z,96.26
2019-02-03T01:40:17.636Z,95.72
2019-02-03T01:41:17.592Z,96.01
2019-02-03T01:42:17.549Z,95.72
2019-02-03T01:43:17.505Z,95.62
2019-02-03T01:44:17.464Z,95.72
2019-02-03T01:45:17.418Z,96.11
2019-02-03T01:46:17.364Z,96.94
2019-02-03T01:47:17.321Z,96.31
2019-02-03T01:48:17.265Z,96.16
2019-02-03T01:49:17.233Z,96.64
2019-02-03T01:50:17.199Z,97.03
2019-02-03T01:51:17.166Z,96.98
2019-02-03T01:52:17.121Z,98.15
2019-02-03T01:53:17.080Z,97.86
2019-02-03T01:54:17.013Z,98.15
2019-02-03T01:55:16.989Z,97.96
2019-02-03T01:56:16.945Z,97.56
2019-02-03T01:57:16.890Z,97.76
2019-02-03T01:58:16.845Z,97.38
2019-02-03T01:59:16.782Z,97.47
2019-02-03T02:00:16.759Z,96.79
2019-02-03T02:01:16.725Z,96.89
2019-02-03T02:02:16.660Z,96.98
2019-02-03T02:03:16.624Z,96.98
2019-02-03T02:04:16.593Z,96.89
2019-02-03T02:05:16.517Z,96.75
2019-02-03T02:06:16.485Z,95.73
2019-02-03T02:07:16.460Z,95.73
2019-02-03T02:08:16.404Z,95.53
2019-02-03T02:09:16.353Z,95.34
2019-02-03T02:10:16.327Z,94.76
2019-02-03T02:11:16.263Z,95.04
2019-02-03T02:12:16.227Z,95.24
2019-02-03T02:13:16.174Z,95.53
2019-02-03T02:14:16.130Z,94.85
2019-02-03T02:15:16.086Z,94.85
2019-02-03T02:16:16.051Z,94.56
2019-02-03T02:17:16.011Z,94.60
2019-02-03T02:18:15.974Z,94.90
2019-02-03T02:19:15.897Z,94.46
2019-02-03T02:20:15.874Z,94.42
2019-02-03T02:21:15.843Z,94.37
2019-02-03T02:22:15.765Z,94.56
2019-02-03T02:23:15.722Z,94.27
2019-02-03T02:24:15.709Z,94.95
2019-02-03T02:25:15.653Z,94.56
2019-02-03T02:26:15.593Z,94.76
2019-02-03T02:27:15.565Z,94.66
2019-02-03T02:28:15.532Z,94.46
2019-02-03T02:29:15.479Z,95.04
2019-02-03T02:30:15.444Z,95.14
2019-02-03T02:31:15.400Z,95.43
2019-02-03T02:32:15.344Z,95.68
2019-02-03T02:33:15.301Z,95.82
2019-02-03T02:34:15.235Z,95.73
2019-02-03T02:35:15.223Z,96.01
2019-02-03T02:36:15.158Z,95.53
2019-02-03T02:37:15.134Z,96.11
2019-02-03T02:38:15.069Z,96.01
2019-02-03T02:39:15.046Z,95.92
2019-02-03T02:40:14.981Z,95.92
2019-02-03T02:41:14.945Z,96.21
2019-02-03T02:42:14.893Z,95.53
2019-02-03T02:43:14.869Z,95.43
2019-02-03T02:44:14.808Z,95.53
2019-02-03T02:45:14.769Z,95.24
2019-02-03T02:46:14.725Z,96.21
2019-02-03T02:47:14.674Z,96.31
2019-02-03T02:48:14.637Z,96.21
2019-02-03T02:49:14.583Z,95.92
2019-02-03T02:50:14.528Z,96.21
2019-02-03T02:51:14.497Z,96.31
2019-02-03T02:52:14.450Z,96.69
2019-02-03T02:53:14.415Z,97.18
2019-02-03T02:54:14.352Z,97.28
2019-02-03T02:55:14.308Z,97.18
2019-02-03T02:56:14.262Z,97.28
2019-02-03T02:57:14.238Z,96.98
2019-02-03T02:58:14.205Z,97.18
2019-02-03T02:59:14.142Z,96.98
2019-02-03T03:00:17.220Z,97.38
2019-02-03T03:01:14.061Z,97.18
2019-02-03T03:02:13.997Z,98.10
2019-02-03T03:03:13.965Z,98.30
2019-02-03T03:04:13.909Z,98.68
2019-02-03T03:05:13.898Z,98.49
2019-02-03T03:06:13.831Z,98.20
2019-02-03T03:07:13.774Z,98.30
2019-02-03T03:08:19.398Z,97.81
2019-02-03T03:09:13.724Z,98.10
2019-02-03T03:10:13.643Z,97.71
2019-02-03T03:11:13.617Z,96.94
2019-02-03T03:12:13.574Z,96.94
2019-02-03T03:13:13.510Z,96.84
2019-02-03T03:14:13.476Z,97.52
2019-02-03T03:15:13.468Z,97.71
2019-02-03T03:16:13.390Z,97.33
2019-02-03T03:17:13.353Z,97.61
2019-02-03T03:18:13.299Z,98.10
2019-02-03T03:19:13.244Z,97.67
2019-02-03T03:20:13.231Z,98.00
2019-02-03T03:21:13.191Z,97.91
2019-02-03T03:22:13.122Z,97.52
2019-02-03T03:23:13.077Z,97.47
2019-02-03T03:24:13.021Z,97.86
2019-02-03T03:25:13.010Z,97.71
2019-02-03T03:26:12.964Z,97.57
2019-02-03T03:27:12.908Z,98.54
2019-02-03T03:28:12.880Z,98.35
2019-02-03T03:29:12.799Z,98.93
2019-02-03T03:30:12.788Z,98.15
2019-02-03T03:31:12.923Z,98.05
2019-02-03T03:32:12.679Z,98.15
2019-02-03T03:33:12.649Z,97.57
2019-02-03T03:34:12.610Z,97.76
2019-02-03T03:35:12.570Z,97.91
2019-02-03T03:36:12.518Z,97.38
2019-02-03T03:37:12.457Z,96.98
2019-02-03T03:38:12.420Z,97.08
2019-02-03T03:39:12.388Z,97.96
2019-02-03T03:40:12.524Z,97.47
2019-02-03T03:41:12.287Z,97.18
2019-02-03T03:42:12.234Z,96.98
2019-02-03T03:43:12.207Z,97.28
2019-02-03T03:44:12.153Z,97.67
2019-02-03T03:45:12.105Z,97.76
2019-02-03T03:46:12.077Z,97.86
2019-02-03T03:47:12.021Z,97.08
2019-02-03T03:48:11.967Z,97.08
2019-02-03T03:49:11.931Z,96.98
2019-02-03T03:50:11.887Z,96.89
2019-02-03T03:51:11.853Z,97.08
2019-02-03T03:52:11.799Z,97.47
2019-02-03T03:53:11.757Z,97.76
2019-02-03T03:54:11.727Z,97.47
2019-02-03T03:55:11.676Z,97.28
2019-02-03T03:56:11.621Z,96.89
2019-02-03T03:57:11.575Z,97.08
2019-02-03T03:58:11.512Z,97.28
2019-02-03T03:59:11.477Z,97.47
2019-02-03T04:00:11.423Z,97.47
2019-02-03T04:01:11.436Z,97.33
2019-02-03T04:02:11.341Z,97.81
2019-02-03T04:03:11.309Z,97.96
2019-02-03T04:04:11.278Z,97.42
2019-02-03T04:05:11.230Z,97.38
2019-02-03T04:06:11.166Z,97.08
2019-02-03T04:07:11.120Z,96.50
2019-02-03T04:08:11.097Z,96.41
2019-02-03T04:09:11.020Z,96.70
2019-02-03T04:10:10.989Z,96.02
2019-02-03T04:11:10.952Z,96.21
2019-02-03T04:12:10.919Z,95.73
2019-02-03T04:13:10.857Z,95.63
2019-02-03T04:14:10.819Z,95.73
2019-02-03T04:15:10.773Z,95.73
2019-02-03T04:16:10.726Z,95.34
2019-02-03T04:17:10.665Z,95.25
2019-02-03T04:18:10.643Z,95.43
2019-02-03T04:19:10.607Z,95.05
2019-02-03T04:20:10.532Z,95.34
2019-02-03T04:21:10.501Z,95.83
2019-02-03T04:22:10.474Z,95.83
2019-02-03T04:23:10.427Z,95.73
2019-02-03T04:24:10.374Z,95.73
2019-02-03T04:25:10.325Z,95.83
2019-02-03T04:26:10.286Z,95.43
2019-02-03T04:27:10.261Z,95.15
2019-02-03T04:28:10.196Z,95.15
2019-02-03T04:29:12.314Z,95.05
2019-02-03T04:30:10.119Z,95.25
2019-02-03T04:31:10.079Z,94.85
2019-02-03T04:32:10.031Z,94.66
2019-02-03T04:33:09.964Z,94.95
2019-02-03T04:34:09.928Z,94.57
2019-02-03T04:35:09.885Z,94.62
2019-02-03T04:36:09.839Z,94.04
2019-02-03T04:37:09.773Z,94.32
2019-02-03T04:38:09.740Z,93.94
2019-02-03T04:39:09.685Z,94.42
2019-02-03T04:40:09.660Z,93.84
2019-02-03T04:41:09.627Z,93.84
2019-02-03T04:42:09.686Z,93.74
2019-02-03T04:43:09.526Z,93.35
2019-02-03T04:44:09.462Z,93.07
2019-02-03T04:45:09.449Z,92.39
2019-02-03T04:46:09.392Z,92.97
2019-02-03T04:47:09.453Z,92.97
2019-02-03T04:48:09.297Z,92.82
2019-02-03T04:49:09.270Z,92.72
2019-02-03T04:50:09.193Z,92.05
2019-02-03T04:51:09.162Z,92.05
2019-02-03T04:52:09.137Z,91.75
2019-02-03T04:53:09.092Z,90.98
2019-02-03T04:54:09.048Z,89.97
2019-02-03T04:55:08.983Z,91.03
2019-02-03T04:56:08.938Z,90.84
2019-02-03T04:57:08.903Z,91.13
2019-02-03T04:58:08.848Z,90.84
2019-02-03T04:59:08.813Z,90.94
2019-02-03T05:00:08.760Z,91.22
2019-02-03T05:01:08.724Z,91.13
2019-02-03T05:02:08.661Z,91.13
2019-02-03T05:03:08.627Z,90.94
2019-02-03T05:04:08.581Z,90.26
2019-02-03T05:05:08.536Z,90.26
2019-02-03T05:06:08.502Z,90.26
2019-02-03T05:07:08.457Z,91.22
2019-02-03T05:08:08.412Z,91.52
2019-02-03T05:09:11.097Z,91.13
2019-02-03T05:10:08.313Z,91.38
2019-02-03T05:11:08.268Z,91.18
2019-02-03T05:12:08.224Z,92.10
2019-02-03T05:13:08.193Z,91.28
2019-02-03T05:14:08.155Z,91.76
2019-02-03T05:15:08.292Z,91.90
2019-02-03T05:16:08.054Z,91.96
2019-02-03T05:17:08.009Z,91.42
2019-02-03T05:18:07.943Z,91.22
2019-02-03T05:19:07.936Z,91.22
2019-02-03T05:20:07.866Z,91.42
2019-02-03T05:21:07.810Z,91.13
2019-02-03T05:22:07.776Z,91.08
2019-02-03T05:23:07.741Z,90.94
2019-02-03T05:24:07.677Z,90.89
2019-02-03T05:25:07.651Z,90.50
2019-02-03T05:26:07.586Z,91.08
2019-02-03T05:27:07.553Z,91.38
2019-02-03T05:28:07.530Z,91.28
2019-02-03T05:29:07.463Z,91.61
2019-02-03T05:30:07.408Z,91.52
2019-02-03T05:31:07.385Z,91.66
2019-02-03T05:32:07.330Z,91.18
2019-02-03T05:33:07.275Z,90.99
2019-02-03T05:34:07.255Z,90.99
2019-02-03T05:35:07.200Z,91.22
2019-02-03T05:36:07.139Z,91.03
2019-02-03T05:37:07.106Z,91.28
2019-02-03T05:38:07.070Z,91.08
2019-02-03T05:39:07.028Z,90.99
2019-02-03T05:40:06.973Z,91.13
2019-02-03T05:41:06.928Z,91.08
2019-02-03T05:42:06.872Z,90.50
2019-02-03T05:43:06.858Z,90.70
2019-02-03T05:44:06.781Z,90.50
2019-02-03T05:45:06.737Z,90.16
2019-02-03T05:46:06.724Z,89.97
2019-02-03T05:47:06.650Z,90.16
2019-02-03T05:48:06.624Z,89.68
2019-02-03T05:49:06.570Z,89.58
2019-02-03T05:50:06.541Z,89.48
2019-02-03T05:51:06.501Z,88.71
2019-02-03T05:52:06.445Z,88.81
2019-02-03T05:53:06.411Z,89.09
2019-02-03T05:54:06.404Z,88.90
2019-02-03T05:55:06.301Z,89.29
2019-02-03T05:56:06.246Z,89.00
2019-02-03T05:57:06.235Z,88.81
2019-02-03T05:58:06.178Z,89.09
2019-02-03T05:59:06.131Z,89.00
2019-02-03T06:00:06.099Z,88.81
2019-02-03T06:01:06.053Z,88.90
2019-02-03T06:02:06.009Z,89.00
2019-02-03T06:03:05.964Z,89.00
2019-02-03T06:04:05.899Z,88.57
2019-02-03T06:05:05.844Z,88.67
2019-02-03T06:06:05.811Z,88.76
2019-02-03T06:07:05.753Z,88.95
2019-02-03T06:08:05.825Z,89.05
2019-02-03T06:09:05.696Z,88.76
2019-02-03T06:10:05.631Z,88.76
2019-02-03T06:11:05.596Z,88.76
2019-02-03T06:12:05.530Z,88.37
2019-02-03T06:13:05.517Z,88.09
2019-02-03T06:14:05.473Z,87.99
2019-02-03T06:15:05.408Z,88.47
2019-02-03T06:16:05.406Z,88.85
2019-02-03T06:17:05.345Z,88.18
2019-02-03T06:18:05.273Z,88.67
2019-02-03T06:19:05.237Z,88.47
2019-02-03T06:20:05.173Z,88.85
2019-02-03T06:21:05.148Z,88.57
2019-02-03T06:22:05.094Z,88.37
2019-02-03T06:23:05.049Z,88.47
2019-02-03T06:24:05.005Z,89.53
2019-02-03T06:25:04.982Z,89.34
2019-02-03T06:26:04.918Z,89.34
2019-02-03T06:27:04.891Z,89.53
2019-02-03T06:28:04.829Z,89.44
2019-02-03T06:29:04.790Z,89.97
2019-02-03T06:30:04.745Z,89.44
2019-02-03T06:31:04.700Z,90.56
2019-02-03T06:32:04.655Z,90.02
2019-02-03T06:33:04.610Z,90.02
2019-02-03T06:34:04.566Z,90.99
2019-02-03T06:35:04.500Z,91.18
2019-02-03T06:36:04.477Z,91.28
2019-02-03T06:37:04.419Z,91.08
2019-02-03T06:38:04.399Z,90.89
2019-02-03T06:39:04.334Z,91.56
2019-02-03T06:40:04.276Z,91.86
2019-02-03T06:41:04.252Z,91.86
2019-02-03T06:42:04.188Z,91.96
2019-02-03T06:43:04.143Z,92.63
2019-02-03T06:44:04.129Z,92.54
2019-02-03T06:45:04.052Z,92.54
2019-02-03T06:46:04.007Z,92.93
2019-02-03T06:47:03.994Z,93.36
2019-02-03T06:48:03.938Z,94.18
2019-02-03T06:49:03.874Z,94.04
2019-02-03T06:50:03.844Z,94.37
2019-02-03T06:51:03.815Z,94.57
2019-02-03T06:52:03.772Z,94.57
2019-02-03T06:53:03.694Z,94.62
2019-02-03T06:54:03.669Z,94.52
2019-02-03T06:55:03.624Z,94.33
2019-02-03T06:56:03.570Z,94.43
2019-02-03T06:57:03.525Z,94.43
2019-02-03T06:58:03.490Z,94.47
2019-02-03T06:59:03.458Z,94.43
2019-02-03T07:00:03.379Z,94.81
2019-02-03T07:01:03.367Z,94.43
2019-02-03T07:02:03.290Z,95.01
2019-02-03T07:03:03.265Z,94.91
2019-02-03T07:04:03.233Z,94.52
2019-02-03T07:05:03.190Z,95.29
2019-02-03T07:06:03.122Z,95.49
2019-02-03T07:07:03.086Z,95.49
2019-02-03T07:08:03.053Z,95.39
2019-02-03T07:09:02.990Z,95.87
2019-02-03T07:10:02.964Z,96.07
2019-02-03T07:11:02.899Z,95.78
2019-02-03T07:12:02.874Z,95.97
2019-02-03T07:13:02.802Z,96.75
2019-02-03T07:14:02.783Z,96.46
2019-02-03T07:15:02.739Z,96.17
2019-02-03T07:16:02.683Z,96.55
2019-02-03T07:17:02.616Z,96.75
2019-02-03T07:18:02.622Z,97.23
2019-02-03T07:19:02.582Z,96.84
2019-02-03T07:20:02.514Z,96.75
2019-02-03T07:21:02.457Z,96.94
2019-02-03T07:22:02.404Z,96.84
2019-02-03T07:23:02.358Z,96.75
2019-02-03T07:24:02.323Z,96.94
2019-02-03T07:25:02.258Z,96.75
2019-02-03T07:26:02.213Z,97.42
2019-02-03T07:27:02.188Z,97.33
2019-02-03T07:28:02.155Z,96.94
2019-02-03T07:29:02.089Z,96.84
2019-02-03T07:30:02.032Z,97.42
2019-02-03T07:31:02.003Z,96.55
2019-02-03T07:32:01.978Z,97.23
2019-02-03T07:33:01.914Z,96.84
2019-02-03T07:34:01.864Z,96.94
2019-02-03T07:35:01.808Z,97.23
2019-02-03T07:36:01.795Z,97.42
2019-02-03T07:37:01.717Z,97.72
2019-02-03T07:38:01.689Z,98.10
2019-02-03T07:39:01.660Z,98.20
2019-02-03T07:40:12.113Z,98.20
2019-02-03T07:41:01.560Z,98.30
2019-02-03T07:42:01.493Z,98.10
2019-02-03T07:43:01.480Z,98.49
2019-02-03T07:44:01.426Z,98.68
2019-02-03T07:45:01.371Z,98.58
2019-02-03T07:46:01.349Z,99.16
2019-02-03T07:47:01.270Z,99.26
2019-02-03T07:48:01.244Z,99.16
2019-02-03T07:49:01.198Z,99.84
2019-02-03T07:50:01.166Z,99.99
2019-02-03T07:51:01.092Z,99.74
2019-02-03T07:52:01.044Z,99.94
2019-02-03T07:53:00.999Z,99.99
2019-02-03T07:54:08.105Z,99.99
2019-02-03T07:55:00.909Z,99.99
2019-02-03T07:56:00.875Z,99.99
2019-02-03T07:57:00.834Z,99.94
2019-02-03T07:58:00.786Z,99.99
2019-02-03T07:59:00.741Z,99.84
2019-02-03T08:00:00.719Z,99.99
2019-02-03T08:01:00.661Z,99.65
2019-02-03T08:02:00.630Z,99.84
2019-02-03T08:03:00.549Z,99.46
2019-02-03T08:04:00.562Z,99.36
2019-02-03T08:05:00.471Z,99.46
2019-02-03T08:06:00.414Z,99.16
2019-02-03T08:07:00.403Z,99.12
2019-02-03T08:08:00.337Z,98.39
2019-02-03T08:09:00.292Z,98.44
2019-02-03T08:10:00.488Z,97.67
2019-02-03T08:11:00.190Z,97.28
2019-02-03T08:12:00.151Z,97.18
2019-02-03T08:13:00.103Z,97.38
2019-02-03T08:14:00.061Z,97.28
2019-02-03T08:15:00.031Z,97.08
2019-02-03T08:15:59.978Z,96.89
2019-02-03T08:16:59.953Z,96.99
2019-02-03T08:17:59.888Z,96.99
2019-02-03T08:18:59.853Z,96.99
2019-02-03T08:19:59.786Z,96.99
2019-02-03T08:20:59.762Z,96.70
2019-02-03T08:21:59.708Z,96.89
2019-02-03T08:22:59.663Z,96.22
2019-02-03T08:23:59.631Z,96.12
2019-02-03T08:24:59.574Z,96.02
2019-02-03T08:25:59.518Z,96.12
2019-02-03T08:26:59.505Z,96.02
2019-02-03T08:27:59.430Z,96.22
2019-02-03T08:28:59.419Z,96.12
2019-02-03T08:29:59.372Z,96.12
2019-02-03T08:30:59.305Z,96.12
2019-02-03T08:31:59.281Z,96.22
2019-02-03T08:32:59.236Z,96.50
2019-02-03T08:33:59.193Z,96.02
2019-02-03T08:34:59.147Z,96.50
2019-02-03T08:35:59.081Z,96.31
2019-02-03T08:36:59.045Z,96.22
2019-02-03T08:37:59.003Z,96.41
2019-02-03T08:38:58.938Z,96.41
2019-02-03T08:39:58.902Z,96.12
2019-02-03T08:40:58.878Z,95.92
2019-02-03T08:41:58.813Z,96.41
2019-02-03T08:42:58.757Z,96.36
2019-02-03T08:43:58.744Z,96.31
2019-02-03T08:44:58.687Z,96.31
2019-02-03T08:45:58.642Z,96.80
2019-02-03T08:46:58.598Z,97.08
2019-02-03T08:47:58.616Z,96.60
2019-02-03T08:48:58.487Z,96.70
2019-02-03T08:49:58.464Z,96.60
2019-02-03T08:50:58.399Z,97.18
2019-02-03T08:51:58.366Z,97.57
2019-02-03T08:52:58.347Z,97.57
2019-02-03T08:53:58.275Z,97.57
2019-02-03T08:54:58.744Z,98.44
2019-02-03T08:55:58.206Z,97.86
2019-02-03T08:56:58.150Z,98.05
2019-02-03T08:57:58.280Z,98.35
2019-02-03T08:58:58.061Z,98.58
2019-02-03T08:59:58.027Z,98.88
2019-02-03T09:00:57.951Z,99.36
2019-02-03T09:01:57.910Z,99.36
2019-02-03T09:02:57.884Z,99.84
2019-02-03T09:03:57.850Z,99.74
2019-02-03T09:04:57.782Z,99.16
2019-02-03T09:05:57.747Z,99.41
2019-02-03T09:06:57.967Z,99.12
2019-02-03T09:07:57.669Z,99.16
2019-02-03T09:08:57.603Z,99.65
2019-02-03T09:09:57.549Z,99.74
2019-02-03T09:10:57.503Z,99.94
2019-02-03T09:11:57.478Z,99.99
2019-02-03T09:12:57.412Z,99.99
2019-02-03T09:13:57.389Z,99.74
2019-02-03T09:14:57.344Z,99.99
2019-02-03T09:15:57.278Z,99.99
2019-02-03T09:16:57.265Z,99.94
2019-02-03T09:17:57.220Z,99.70
2019-02-03T09:18:57.176Z,99.41
2019-02-03T09:19:58.094Z,99.60
2019-02-03T09:20:57.074Z,98.63
2019-02-03T09:21:57.020Z,98.00
2019-02-03T09:22:56.984Z,98.68
2019-02-03T09:23:56.931Z,97.91
2019-02-03T09:24:56.906Z,98.20
2019-02-03T09:25:56.841Z,98.44
2019-02-03T09:26:56.796Z,98.39
2019-02-03T09:27:56.740Z,99.02
2019-02-03T09:28:56.696Z,98.68
2019-02-03T09:29:56.652Z,98.97
2019-02-03T09:30:56.606Z,98.97
2019-02-03T09:31:56.582Z,98.88
2019-02-03T09:32:56.549Z,98.78
2019-02-03T09:33:56.496Z,98.49
2019-02-03T09:34:56.428Z,98.97
2019-02-03T09:35:56.431Z,98.68
2019-02-03T09:36:56.341Z,99.07
2019-02-03T09:37:56.296Z,99.07
2019-02-03T09:38:56.283Z,99.46
2019-02-03T09:39:56.206Z,98.49
2019-02-03T09:41:00.207Z,98.58
2019-02-03T09:41:56.127Z,98.88
2019-02-03T09:42:56.092Z,99.31
2019-02-03T09:43:56.026Z,99.65
2019-02-03T09:44:56.017Z,99.75
2019-02-03T09:45:55.970Z,99.51
2019-02-03T09:46:55.904Z,99.17
2019-02-03T09:47:55.869Z,98.88
2019-02-03T09:48:55.835Z,99.07
2019-02-03T09:49:55.786Z,98.63
2019-02-03T09:50:55.726Z,97.76
2019-02-03T09:51:55.670Z,96.84
2019-02-03T09:52:55.628Z,94.66
2019-02-03T09:53:55.614Z,93.15
2019-02-03T09:54:55.559Z,90.19
2019-02-03T09:55:55.515Z,88.58
2019-02-03T09:56:55.454Z,89.17
2019-02-03T09:57:55.441Z,86.88
2019-02-03T09:58:55.398Z,85.27
2019-02-03T09:59:57.839Z,84.10
2019-02-03T10:00:55.295Z,83.61
2019-02-03T10:01:55.279Z,84.30
2019-02-03T10:02:55.212Z,85.13
2019-02-03T10:03:55.168Z,85.47
2019-02-03T10:04:55.124Z,86.64
2019-02-03T10:05:55.103Z,87.12
2019-02-03T10:06:55.040Z,87.41
2019-02-03T10:07:54.986Z,87.76
2019-02-03T10:08:54.965Z,88.54
2019-02-03T10:09:54.913Z,88.93
2019-02-03T10:10:54.891Z,89.31
2019-02-03T10:11:54.816Z,89.12
2019-02-03T10:12:54.794Z,89.51
2019-02-03T10:13:54.763Z,90.09
2019-02-03T10:14:54.709Z,89.22
2019-02-03T10:15:54.678Z,89.80
2019-02-03T10:16:54.635Z,88.73
2019-02-03T10:17:54.581Z,87.71
2019-02-03T10:18:54.550Z,87.71
2019-02-03T10:19:54.476Z,88.00
2019-02-03T10:20:54.434Z,87.81
2019-02-03T10:21:54.415Z,87.03
2019-02-03T10:22:54.349Z,86.39
2019-02-03T10:23:54.338Z,85.07
2019-02-03T10:24:54.296Z,83.65
2019-02-03T10:25:55.388Z,82.23
2019-02-03T10:26:54.213Z,80.72
2019-02-03T10:27:54.160Z,80.33
2019-02-03T10:28:54.100Z,78.52
2019-02-03T10:29:54.059Z,78.36
2019-02-03T10:30:54.058Z,77.06
2019-02-03T10:31:53.980Z,77.34
2019-02-03T10:32:53.951Z,76.41
2019-02-03T10:33:53.912Z,77.00
2019-02-03T10:34:53.896Z,75.82
2019-02-03T10:35:53.855Z,75.73
2019-02-03T10:36:53.805Z,75.43
2019-02-03T10:37:53.761Z,76.51
2019-02-03T10:38:53.727Z,76.08
2019-02-03T10:39:53.688Z,76.53
2019-02-03T10:40:53.640Z,78.15
2019-02-03T10:41:53.600Z,78.83
2019-02-03T10:42:53.550Z,80.35
2019-02-03T10:43:56.246Z,80.99
2019-02-03T10:44:53.490Z,81.76
2019-02-03T10:45:53.462Z,82.84
2019-02-03T10:46:53.389Z,83.67
2019-02-03T10:47:53.375Z,83.47
2019-02-03T10:48:53.307Z,83.47
2019-02-03T10:49:53.299Z,84.21
2019-02-03T10:50:53.227Z,83.92
2019-02-03T10:51:53.186Z,84.01
2019-02-03T10:52:53.154Z,84.41
2019-02-03T10:53:53.386Z,84.70
2019-02-03T10:54:53.080Z,84.70
2019-02-03T10:55:53.029Z,85.08
2019-02-03T10:56:52.997Z,84.99
2019-02-03T10:57:52.970Z,84.60
2019-02-03T10:58:52.913Z,84.31
2019-02-03T10:59:52.882Z,84.06
2019-02-03T11:00:55.067Z,83.96
2019-02-03T11:01:52.778Z,83.67
2019-02-03T11:02:52.745Z,83.76
2019-02-03T11:03:52.694Z,83.67
2019-02-03T11:04:52.640Z,83.57
2019-02-03T11:05:52.618Z,84.25
2019-02-03T11:06:52.555Z,84.21
2019-02-03T11:07:52.545Z,83.72
2019-02-03T11:08:52.482Z,84.21
2019-02-03T11:09:52.439Z,84.50
2019-02-03T11:10:52.399Z,84.41
2019-02-03T11:11:52.345Z,85.38
2019-02-03T11:12:52.312Z,84.11
2019-02-03T11:13:52.270Z,83.67
2019-02-03T11:14:52.237Z,83.37
2019-02-03T11:15:52.204Z,82.21
2019-02-03T11:16:52.141Z,82.37
2019-02-03T11:17:52.108Z,82.50
2019-02-03T11:18:52.044Z,82.79
2019-02-03T11:19:52.013Z,83.57
2019-02-03T11:20:51.980Z,82.79
2019-02-03T11:21:51.928Z,81.34
2019-02-03T11:22:51.885Z,81.38
2019-02-03T11:23:51.842Z,81.38
2019-02-03T11:24:51.808Z,80.60
2019-02-03T11:25:51.768Z,80.69
2019-02-03T11:26:51.703Z,80.69
2019-02-03T11:27:51.660Z,81.48
2019-02-03T11:28:51.637Z,80.60
2019-02-03T11:29:51.607Z,80.60
2019-02-03T11:30:51.545Z,80.99
2019-02-03T11:31:54.245Z,80.15
2019-02-03T11:32:51.459Z,79.57
2019-02-03T11:33:51.435Z,78.92
2019-02-03T11:34:51.361Z,78.25
2019-02-03T11:35:51.339Z,77.27
2019-02-03T11:36:51.311Z,78.09
2019-02-03T11:37:51.265Z,77.60
2019-02-03T11:38:51.191Z,76.92
2019-02-03T11:39:51.152Z,77.06
2019-02-03T11:40:51.139Z,76.67
2019-02-03T11:41:51.076Z,76.02
2019-02-03T11:42:51.033Z,74.85
2019-02-03T11:43:50.997Z,73.68
2019-02-03T11:44:50.949Z,73.88
2019-02-03T11:45:50.928Z,73.43
2019-02-03T11:46:50.888Z,73.68
2019-02-03T11:47:50.833Z,72.71
2019-02-03T11:48:50.872Z,72.31
2019-02-03T11:49:50.740Z,71.83
2019-02-03T11:50:50.706Z,72.41
2019-02-03T11:51:50.644Z,72.77
2019-02-03T11:52:50.616Z,73.65
2019-02-03T11:53:50.602Z,73.16
2019-02-03T11:54:50.531Z,74.13
2019-02-03T11:55:53.561Z,73.84
2019-02-03T11:56:50.467Z,74.04
2019-02-03T11:57:50.427Z,74.62
2019-02-03T11:58:50.364Z,75.07
2019-02-03T11:59:50.309Z,75.07
2019-02-03T12:00:50.279Z,75.56
2019-02-03T12:01:50.237Z,75.95
2019-02-03T12:02:50.204Z,76.53
2019-02-03T12:03:50.142Z,76.78
2019-02-03T12:04:50.120Z,77.27
2019-02-03T12:05:50.164Z,77.17
2019-02-03T12:06:50.037Z,77.56
2019-02-03T12:07:49.995Z,77.50
2019-02-03T12:08:49.963Z,76.82
2019-02-03T12:09:49.910Z,76.43
2019-02-03T12:10:49.847Z,76.34
2019-02-03T12:12:00.585Z,76.04
2019-02-03T12:12:49.764Z,76.92
2019-02-03T12:13:49.722Z,75.65
2019-02-03T12:14:49.700Z,75.01
2019-02-03T12:15:49.654Z,74.62
2019-02-03T12:16:49.616Z,74.43
2019-02-03T12:17:49.523Z,73.16
2019-02-03T12:18:49.543Z,73.39
2019-02-03T12:19:49.476Z,73.10
2019-02-03T12:20:49.460Z,72.61
2019-02-03T12:21:49.397Z,72.45
2019-02-03T12:22:49.355Z,73.03
2019-02-03T12:23:49.322Z,72.64
2019-02-03T12:24:49.272Z,70.50
2019-02-03T12:25:49.230Z,70.73
2019-02-03T12:26:49.209Z,70.63
2019-02-03T12:27:49.169Z,70.53
2019-02-03T12:28:49.094Z,69.17
2019-02-03T12:29:49.072Z,69.49
2019-02-03T12:30:49.124Z,69.20
2019-02-03T12:31:48.971Z,69.79
2019-02-03T12:32:48.957Z,69.49
2019-02-03T12:33:48.908Z,69.53
2019-02-03T12:34:48.880Z,68.55
2019-02-03T12:35:48.841Z,68.07
2019-02-03T12:36:48.764Z,67.90
2019-02-03T12:37:48.735Z,67.58
2019-02-03T12:38:48.713Z,68.36
2019-02-03T12:39:48.652Z,68.75
2019-02-03T12:40:48.620Z,68.75
2019-02-03T12:41:48.591Z,68.26
2019-02-03T12:42:48.518Z,69.43
2019-02-03T12:43:48.509Z,68.65
2019-02-03T12:44:48.447Z,68.55
2019-02-03T12:45:48.414Z,67.80
2019-02-03T12:46:48.366Z,67.41
2019-02-03T12:47:48.334Z,68.19
2019-02-03T12:48:48.276Z,67.51
2019-02-03T12:49:48.263Z,67.61
2019-02-03T12:50:48.211Z,67.71
2019-02-03T12:51:48.182Z,67.61